Aviation Digital Data Service (ADDS)

Output produced by METARs form (2053 UTC 23 January 2017)
found at http://www.aviationweather.gov/adds/metars/
 
KALB 232040Z 2321/2418 05008G15KT P6SM FEW029 BKN035 OVC220 
     FM240300 01014G19KT 3SM -SN BR BKN015 OVC020 
     FM240700 01015G23KT 1SM -FZRASNPL BR VV009 
     FM241300 35010KT 3SM -RASN BR BKN020 OVC030